Time;durP1;ratioP1;P1;durP2;ratioP2;P2;SDS_P1;SDS_P2;PMS_P1;PMS_P2;Temp;Humidity;BMP_temperature;BMP_pressure;BME280_temperature;BME280_humidity;BME280_pressure;Samples;Min_cycle;Max_cycle;Signal;HPM_P1;HPM_P2
2021/08/22 00:00:29;;;;;;;1.63;1.52;;;25.30;47.90;;;;;;5048530;28;20076;-74
2021/08/22 00:02:56;;;;;;;1.90;1.80;;;25.40;48.00;;;;;;5048747;28;20110;-74
2021/08/22 00:05:25;;;;;;;1.52;1.42;;;25.30;48.00;;;;;;5047835;28;20049;-74
2021/08/22 00:07:52;;;;;;;1.20;1.20;;;25.30;48.00;;;;;;5048563;28;20077;-75
2021/08/22 00:10:19;;;;;;;1.83;1.70;;;25.30;48.00;;;;;;5048661;28;20045;-74
2021/08/22 00:12:47;;;;;;;1.65;1.55;;;25.30;48.00;;;;;;5047686;28;20128;-77
2021/08/22 00:15:15;;;;;;;1.73;1.63;;;25.30;48.10;;;;;;5048164;28;20049;-75
2021/08/22 00:17:43;;;;;;;1.38;1.30;;;25.30;48.00;;;;;;5048212;28;20136;-75
2021/08/22 00:20:10;;;;;;;1.38;1.30;;;25.30;48.10;;;;;;5047977;28;20133;-74
2021/08/22 00:22:38;;;;;;;2.75;1.77;;;25.30;48.10;;;;;;5048155;28;20080;-74
2021/08/22 00:25:06;;;;;;;1.70;1.60;;;25.30;48.10;;;;;;5048629;28;20076;-75
2021/08/22 00:27:33;;;;;;;1.88;1.45;;;25.30;48.10;;;;;;5047526;28;20127;-74
2021/08/22 00:30:00;;;;;;;2.10;1.40;;;25.30;48.10;;;;;;5047882;28;20136;-74
2021/08/22 00:32:27;;;;;;;1.80;1.45;;;25.30;48.10;;;;;;5047751;28;20084;-74
2021/08/22 00:34:55;;;;;;;1.65;1.55;;;25.30;48.20;;;;;;5048221;28;20041;-75
2021/08/22 00:37:22;;;;;;;1.60;1.50;;;25.30;48.20;;;;;;5047868;28;20132;-74
2021/08/22 00:39:49;;;;;;;1.70;1.60;;;25.30;48.20;;;;;;5048023;28;20076;-75
2021/08/22 00:42:17;;;;;;;1.88;1.40;;;25.30;48.20;;;;;;5046899;28;20053;-74
2021/08/22 00:44:44;;;;;;;1.90;1.80;;;25.20;48.20;;;;;;5047975;28;20056;-75
2021/08/22 00:47:11;;;;;;;1.60;1.50;;;25.20;48.20;;;;;;5046594;28;20057;-75
2021/08/22 00:49:38;;;;;;;1.42;1.33;;;25.20;48.20;;;;;;5046849;28;20714;-75
2021/08/22 00:52:06;;;;;;;1.35;1.23;;;25.20;48.20;;;;;;5047529;28;20477;-75
2021/08/22 00:54:34;;;;;;;1.60;1.50;;;25.30;48.30;;;;;;5047150;28;20052;-74
2021/08/22 00:57:02;;;;;;;2.10;1.67;;;25.30;48.30;;;;;;5047699;28;20535;-75
2021/08/22 00:59:29;;;;;;;3.90;1.83;;;25.30;48.30;;;;;;5047263;28;20084;-75
2021/08/22 01:01:59;;;;;;;1.67;1.58;;;25.30;48.30;;;;;;5046866;28;20136;-75
2021/08/22 01:04:50;;;;;;;1.80;1.70;;;25.20;48.20;;;;;;5047849;28;20045;-75
2021/08/22 01:07:28;;;;;;;1.83;1.73;;;25.30;48.20;;;;;;5047118;28;20128;-75
2021/08/22 01:09:55;;;;;;;1.77;1.67;;;25.30;48.20;;;;;;5047425;28;20509;-75
2021/08/22 01:12:33;;;;;;;1.80;1.70;;;25.30;48.20;;;;;;5047552;28;20564;-74
2021/08/22 01:15:05;;;;;;;1.52;1.42;;;25.30;48.20;;;;;;5047208;28;20135;-75
2021/08/22 01:17:41;;;;;;;2.13;1.80;;;25.30;48.20;;;;;;5046658;28;20477;-75
2021/08/22 01:20:44;;;;;;;1.77;1.67;;;25.30;48.30;;;;;;5047531;28;20087;-75
2021/08/22 01:23:13;;;;;;;1.60;1.50;;;25.30;48.20;;;;;;5046026;28;20128;-75
2021/08/22 01:25:42;;;;;;;1.90;1.70;;;25.20;48.20;;;;;;5046097;28;20612;-74
2021/08/22 01:28:10;;;;;;;1.65;1.23;;;25.20;48.30;;;;;;5047223;28;20132;-74
2021/08/22 01:30:45;;;;;;;2.53;1.35;;;25.30;48.30;;;;;;5046554;28;20481;-74
2021/08/22 01:33:14;;;;;;;1.38;1.25;;;25.30;48.40;;;;;;5047090;28;20395;-75
2021/08/22 01:35:42;;;;;;;1.65;1.55;;;25.20;48.30;;;;;;5045542;28;20663;-75
2021/08/22 01:38:10;;;;;;;1.60;1.50;;;25.20;48.30;;;;;;5046613;28;20056;-75
2021/08/22 01:40:39;;;;;;;1.75;1.65;;;25.20;48.30;;;;;;5047052;28;20041;-74
2021/08/22 01:43:07;;;;;;;1.80;1.70;;;25.20;48.40;;;;;;5046332;28;20674;-75
2021/08/22 01:45:34;;;;;;;1.60;1.50;;;25.20;48.40;;;;;;5046673;28;20245;-74
2021/08/22 01:48:02;;;;;;;1.42;1.33;;;25.20;48.40;;;;;;5046125;28;20421;-74
2021/08/22 01:50:30;;;;;;;1.20;1.10;;;25.20;48.40;;;;;;5046687;28;20435;-74
2021/08/22 01:53:02;;;;;;;1.45;1.40;;;25.20;48.40;;;;;;5046503;28;20045;-74
2021/08/22 01:55:30;;;;;;;2.30;1.92;;;25.20;48.40;;;;;;5045961;28;20132;-74
2021/08/22 01:57:57;;;;;;;2.10;1.90;;;25.20;48.40;;;;;;5046585;28;20049;-75
2021/08/22 02:00:24;;;;;;;1.50;1.33;;;25.20;48.50;;;;;;5045836;28;20159;-74
2021/08/22 02:03:03;;;;;;;1.92;1.67;;;25.20;48.50;;;;;;5046628;28;20494;-74
2021/08/22 02:05:36;;;;;;;1.40;1.30;;;25.10;48.40;;;;;;5045953;28;20049;-75
2021/08/22 02:08:10;;;;;;;1.40;1.30;;;25.20;48.50;;;;;;5045884;28;20584;-75
2021/08/22 02:10:42;;;;;;;1.45;1.35;;;25.20;48.50;;;;;;5046134;28;20553;-74
2021/08/22 02:13:11;;;;;;;1.70;1.60;;;25.10;48.50;;;;;;5045623;28;20345;-75
2021/08/22 02:15:43;;;;;;;1.88;1.45;;;25.10;48.50;;;;;;5046162;28;20383;-75
2021/08/22 02:18:18;;;;;;;1.60;1.50;;;25.20;48.60;;;;;;5046060;28;20481;-75
2021/08/22 02:20:46;;;;;;;2.22;2.05;;;25.20;48.60;;;;;;5045800;28;20076;-74
2021/08/22 02:23:13;;;;;;;1.50;1.40;;;25.10;48.50;;;;;;5045702;28;20489;-75
2021/08/22 02:25:43;;;;;;;2.47;1.65;;;25.10;48.50;;;;;;5046325;28;20059;-74
2021/08/22 02:28:10;;;;;;;2.47;1.67;;;25.10;48.60;;;;;;5045794;28;20521;-74
2021/08/22 02:30:38;;;;;;;1.40;1.30;;;25.10;48.60;;;;;;5045790;28;20493;-74
2021/08/22 02:33:07;;;;;;;1.55;1.45;;;25.10;48.50;;;;;;5045820;28;20136;-75
2021/08/22 02:35:35;;;;;;;1.55;1.40;;;25.10;48.50;;;;;;5045822;28;20186;-74
2021/08/22 02:38:02;;;;;;;1.48;1.38;;;25.10;48.50;;;;;;5045486;28;20049;-74
2021/08/22 02:40:30;;;;;;;1.73;1.45;;;25.10;48.50;;;;;;5046186;28;20394;-74
2021/08/22 02:42:57;;;;;;;1.65;1.55;;;25.20;48.60;;;;;;5045664;28;20124;-74
2021/08/22 02:45:24;;;;;;;1.42;1.33;;;25.10;48.50;;;;;;5045875;28;20056;-74
2021/08/22 02:47:57;;;;;;;1.45;1.35;;;25.20;48.50;;;;;;5045748;28;20053;-74
2021/08/22 02:50:25;;;;;;;1.75;1.65;;;25.20;48.50;;;;;;5045748;28;20517;-75
2021/08/22 02:52:53;;;;;;;2.15;1.67;;;25.20;48.50;;;;;;5044192;28;20137;-74
2021/08/22 02:55:21;;;;;;;1.98;1.88;;;25.20;48.50;;;;;;5045608;28;20053;-74
2021/08/22 02:57:49;;;;;;;1.77;1.67;;;25.20;48.50;;;;;;5045755;28;20049;-74
2021/08/22 03:00:16;;;;;;;1.20;1.20;;;25.20;48.50;;;;;;5045522;28;20464;-74
2021/08/22 03:02:44;;;;;;;1.15;1.05;;;25.10;48.50;;;;;;5045478;28;20044;-75
2021/08/22 03:05:11;;;;;;;1.65;1.55;;;25.20;48.50;;;;;;5046033;28;20055;-74
2021/08/22 03:07:38;;;;;;;1.77;1.65;;;25.10;48.50;;;;;;5045844;28;20045;-74
2021/08/22 03:10:06;;;;;;;1.77;1.67;;;25.20;48.60;;;;;;5045527;28;20049;-74
2021/08/22 03:12:33;;;;;;;9.07;1.25;;;25.10;48.50;;;;;;5045738;28;20320;-74
2021/08/22 03:15:00;;;;;;;1.70;1.60;;;25.10;48.50;;;;;;5049548;28;20076;-74
2021/08/22 03:17:27;;;;;;;1.40;1.30;;;25.10;48.60;;;;;;5049439;28;20067;-75
2021/08/22 03:19:54;;;;;;;1.42;1.30;;;25.10;48.60;;;;;;5049055;28;20091;-74
2021/08/22 03:22:23;;;;;;;1.58;1.48;;;25.10;48.60;;;;;;5049756;28;20056;-74
2021/08/22 03:24:50;;;;;;;1.40;1.30;;;25.10;48.60;;;;;;5048965;28;20060;-74
2021/08/22 03:27:17;;;;;;;1.65;1.40;;;25.10;48.60;;;;;;5049494;28;20088;-74
2021/08/22 03:29:44;;;;;;;1.50;1.40;;;25.10;48.70;;;;;;5048970;28;20537;-74
2021/08/22 03:32:11;;;;;;;1.20;1.20;;;25.10;48.60;;;;;;5049114;28;20049;-74
2021/08/22 03:34:39;;;;;;;1.67;1.58;;;25.10;48.70;;;;;;5049073;28;20482;-74
2021/08/22 03:37:07;;;;;;;1.60;1.50;;;25.10;48.70;;;;;;5048908;28;20088;-74
2021/08/22 03:39:34;;;;;;;1.50;1.40;;;25.10;48.70;;;;;;5048915;28;20151;-74
2021/08/22 03:42:02;;;;;;;1.63;1.52;;;25.10;48.70;;;;;;5048336;28;20080;-74
2021/08/22 03:44:29;;;;;;;1.30;1.20;;;25.10;48.70;;;;;;5049031;28;20393;-74
2021/08/22 03:46:56;;;;;;;1.42;1.33;;;25.10;48.70;;;;;;5049412;28;20044;-74
2021/08/22 03:49:23;;;;;;;1.35;1.25;;;25.10;48.80;;;;;;5048388;28;20063;-75
2021/08/22 03:51:50;;;;;;;1.50;1.40;;;25.10;48.80;;;;;;5049238;28;20100;-74
2021/08/22 03:54:17;;;;;;;1.67;1.58;;;25.10;48.80;;;;;;5049284;28;20473;-74
2021/08/22 03:56:44;;;;;;;1.30;1.20;;;25.10;48.80;;;;;;5048637;28;20052;-74
2021/08/22 03:59:11;;;;;;;1.13;1.10;;;25.10;48.80;;;;;;5048649;28;20136;-74
2021/08/22 04:01:38;;;;;;;1.25;1.15;;;25.10;48.80;;;;;;5048745;28;20265;-75
2021/08/22 04:04:06;;;;;;;1.60;1.30;;;25.10;48.80;;;;;;5049055;28;20080;-74
2021/08/22 04:06:34;;;;;;;1.55;1.45;;;25.10;48.80;;;;;;5048623;28;20051;-74
2021/08/22 04:09:01;;;;;;;1.73;1.35;;;25.10;48.80;;;;;;5048433;28;20045;-74
2021/08/22 04:11:29;;;;;;;1.92;1.83;;;25.10;48.80;;;;;;5048869;28;20080;-75
2021/08/22 04:13:56;;;;;;;1.40;1.30;;;25.10;48.70;;;;;;5049744;28;20079;-74
2021/08/22 04:16:23;;;;;;;1.52;1.42;;;25.10;48.70;;;;;;5058419;28;20280;-74
2021/08/22 04:18:51;;;;;;;1.60;1.50;;;25.10;48.70;;;;;;5056709;28;20734;-74
2021/08/22 04:21:18;;;;;;;1.33;1.23;;;25.10;48.60;;;;;;5048486;28;20067;-74
2021/08/22 04:23:45;;;;;;;1.50;1.40;;;25.10;48.60;;;;;;5048001;28;20553;-74
2021/08/22 04:26:12;;;;;;;1.13;1.05;;;25.10;48.60;;;;;;5048010;28;20132;-74
2021/08/22 04:28:39;;;;;;;1.40;1.30;;;25.10;48.50;;;;;;5047751;28;20037;-74
2021/08/22 04:31:07;;;;;;;1.20;1.20;;;25.10;48.50;;;;;;5047627;28;20238;-74
2021/08/22 04:33:34;;;;;;;1.83;1.73;;;25.20;48.50;;;;;;5030215;28;20478;-75
2021/08/22 04:36:01;;;;;;;1.65;1.45;;;25.20;48.40;;;;;;5047912;28;20052;-74
2021/08/22 04:38:28;;;;;;;1.52;1.33;;;25.20;48.40;;;;;;5047602;28;20457;-74
2021/08/22 04:40:55;;;;;;;1.27;1.15;;;25.30;48.40;;;;;;5047653;28;20072;-74
2021/08/22 04:43:24;;;;;;;1.40;1.30;;;25.20;48.30;;;;;;5047560;28;20045;-74
2021/08/22 04:45:51;;;;;;;1.30;1.20;;;25.30;48.40;;;;;;5047576;28;20037;-74
2021/08/22 04:48:18;;;;;;;1.80;1.52;;;25.30;48.40;;;;;;5047700;28;20494;-74
2021/08/22 04:50:46;;;;;;;1.30;1.20;;;25.30;48.40;;;;;;5047552;28;20579;-74
2021/08/22 04:53:13;;;;;;;1.30;1.20;;;25.30;48.30;;;;;;5048055;28;20136;-74
2021/08/22 04:55:40;;;;;;;1.00;1.00;;;25.30;48.30;;;;;;5047431;28;20386;-75
2021/08/22 04:58:07;;;;;;;1.30;1.30;;;25.30;48.30;;;;;;5047929;28;20051;-74
2021/08/22 05:00:34;;;;;;;1.30;1.20;;;25.30;48.20;;;;;;5053141;28;20048;-75
2021/08/22 05:03:01;;;;;;;1.33;1.23;;;25.30;48.20;;;;;;5067657;28;20117;-74
2021/08/22 05:05:29;;;;;;;1.70;1.60;;;25.40;48.20;;;;;;5067360;28;20045;-74
2021/08/22 05:07:59;;;;;;;2.55;1.45;;;25.40;48.10;;;;;;5067123;28;20576;-74
2021/08/22 05:10:26;;;;;;;1.45;1.35;;;25.30;48.10;;;;;;5067009;28;20048;-74
2021/08/22 05:12:53;;;;;;;1.60;1.50;;;25.30;48.10;;;;;;5067056;28;20040;-74
2021/08/22 05:15:21;;;;;;;1.73;1.30;;;25.30;48.20;;;;;;5067313;28;20485;-74
2021/08/22 05:17:49;;;;;;;1.98;1.85;;;25.30;48.40;;;;;;5067143;28;20508;-74
2021/08/22 05:20:16;;;;;;;1.42;1.30;;;25.10;48.40;;;;;;5066685;28;20049;-74
2021/08/22 05:22:43;;;;;;;1.40;1.30;;;25.00;48.60;;;;;;5067340;28;20131;-75
2021/08/22 05:25:10;;;;;;;1.17;1.17;;;24.90;48.90;;;;;;5066656;28;20531;-74
2021/08/22 05:27:37;;;;;;;1.98;1.73;;;24.80;49.20;;;;;;5065049;28;20041;-76
2021/08/22 05:30:05;;;;;;;1.50;1.40;;;24.60;49.60;;;;;;5066836;28;20137;-74
2021/08/22 05:32:32;;;;;;;1.50;1.40;;;24.50;49.90;;;;;;5066391;28;20516;-74
2021/08/22 05:34:59;;;;;;;1.65;1.55;;;24.30;50.20;;;;;;5066648;28;20080;-74
2021/08/22 05:37:26;;;;;;;1.70;1.60;;;24.10;50.70;;;;;;5066382;28;20037;-74
2021/08/22 05:39:53;;;;;;;1.38;1.30;;;24.00;51.00;;;;;;5067250;28;20489;-74
2021/08/22 05:42:20;;;;;;;1.73;1.58;;;23.90;51.00;;;;;;5066357;28;20044;-74
2021/08/22 05:44:47;;;;;;;1.67;1.58;;;23.80;51.50;;;;;;5066438;28;20497;-74
2021/08/22 05:47:20;;;;;;;1.60;1.50;;;23.60;51.90;;;;;;5066421;28;20054;-74
2021/08/22 05:49:48;;;;;;;1.60;1.50;;;23.60;52.00;;;;;;5065892;28;20041;-74
2021/08/22 05:52:15;;;;;;;2.55;1.85;;;23.40;52.00;;;;;;5066530;28;20076;-74
2021/08/22 05:54:42;;;;;;;2.03;1.90;;;23.40;52.40;;;;;;5066582;28;20485;-74
2021/08/22 05:57:09;;;;;;;1.77;1.60;;;23.30;52.50;;;;;;5065871;28;20080;-74
2021/08/22 05:59:39;;;;;;;2.30;2.10;;;23.20;52.40;;;;;;5066483;28;20662;-74
2021/08/22 06:02:06;;;;;;;1.80;1.70;;;23.20;52.70;;;;;;5066052;28;20045;-73
2021/08/22 06:04:34;;;;;;;1.70;1.60;;;23.10;52.90;;;;;;5066730;28;20083;-74
2021/08/22 06:07:01;;;;;;;1.60;1.50;;;23.10;52.90;;;;;;5065870;28;20123;-73
2021/08/22 06:09:31;;;;;;;1.75;1.65;;;23.00;53.00;;;;;;5066142;28;20075;-73
2021/08/22 06:12:00;;;;;;;1.80;1.70;;;23.00;53.30;;;;;;5066278;28;20055;-74
2021/08/22 06:14:27;;;;;;;1.92;1.75;;;22.90;53.20;;;;;;5065800;28;20285;-74
2021/08/22 06:16:54;;;;;;;1.80;1.70;;;22.90;53.10;;;;;;5065961;28;20072;-73
2021/08/22 06:19:21;;;;;;;1.73;1.60;;;22.80;53.40;;;;;;5065084;28;20052;-73
2021/08/22 06:21:48;;;;;;;1.70;1.60;;;22.80;53.40;;;;;;5065891;28;20131;-74
2021/08/22 06:24:15;;;;;;;1.80;1.70;;;22.80;53.30;;;;;;5066377;28;20101;-74
2021/08/22 06:26:42;;;;;;;2.05;1.88;;;22.80;53.40;;;;;;5066062;28;20131;-73
2021/08/22 06:29:09;;;;;;;1.75;1.65;;;22.80;53.80;;;;;;5066377;28;20393;-73
2021/08/22 06:31:36;;;;;;;2.90;1.98;;;22.70;53.60;;;;;;5065281;28;20648;-74
2021/08/22 06:34:07;;;;;;;2.35;2.15;;;22.70;53.60;;;;;;5065944;28;20052;-74
2021/08/22 06:36:40;;;;;;;2.63;1.92;;;22.70;54.00;;;;;;5065993;28;20122;-73
2021/08/22 06:39:08;;;;;;;1.88;1.65;;;22.70;54.10;;;;;;5065292;28;20462;-74
2021/08/22 06:41:36;;;;;;;1.85;1.75;;;22.70;54.00;;;;;;5066061;28;20476;-74
2021/08/22 06:44:03;;;;;;;2.17;1.85;;;22.70;54.30;;;;;;5065536;28;20160;-73
2021/08/22 06:46:30;;;;;;;2.10;1.90;;;22.70;54.40;;;;;;5065667;28;20493;-74
2021/08/22 06:48:57;;;;;;;2.05;1.92;;;22.70;54.20;;;;;;5065699;28;20045;-73
2021/08/22 06:51:25;;;;;;;2.38;2.17;;;22.60;54.30;;;;;;5065278;28;20245;-73
2021/08/22 06:53:52;;;;;;;1.80;1.70;;;22.60;54.50;;;;;;5065722;28;20255;-75
2021/08/22 06:56:19;;;;;;;1.65;1.55;;;22.60;54.40;;;;;;5065098;28;20139;-74
2021/08/22 06:58:46;;;;;;;3.30;1.73;;;22.60;54.40;;;;;;5065766;28;20047;-74
2021/08/22 07:01:15;;;;;;;1.77;1.67;;;22.60;54.50;;;;;;5065606;28;20147;-73
2021/08/22 07:03:42;;;;;;;1.90;1.80;;;22.60;54.50;;;;;;5065494;28;20083;-74
2021/08/22 07:06:10;;;;;;;2.05;1.85;;;22.60;54.60;;;;;;5064656;28;20044;-74
2021/08/22 07:08:37;;;;;;;1.80;1.67;;;22.60;54.80;;;;;;5065527;28;20047;-74
2021/08/22 07:11:04;;;;;;;2.03;1.90;;;22.60;54.90;;;;;;5065623;28;20167;-74
2021/08/22 07:13:32;;;;;;;1.85;1.75;;;22.60;55.00;;;;;;5064914;28;20135;-73
2021/08/22 07:15:59;;;;;;;2.10;1.90;;;22.60;55.00;;;;;;5065620;28;20127;-74
2021/08/22 07:18:27;;;;;;;2.13;1.80;;;22.60;55.20;;;;;;5065763;28;20059;-74
2021/08/22 07:20:54;;;;;;;1.92;1.83;;;22.60;55.10;;;;;;5064878;28;20049;-74
2021/08/22 07:23:21;;;;;;;2.38;2.17;;;22.70;55.20;;;;;;5065722;28;20043;-74
2021/08/22 07:25:48;;;;;;;1.80;1.70;;;22.70;55.20;;;;;;5065190;28;20143;-74
2021/08/22 07:28:15;;;;;;;2.60;2.03;;;22.70;55.20;;;;;;5065129;28;20091;-74
2021/08/22 07:30:46;;;;;;;1.80;1.70;;;22.70;55.20;;;;;;5065485;28;20132;-74
2021/08/22 07:33:14;;;;;;;2.17;2.00;;;22.70;55.10;;;;;;5064873;28;20764;-74
2021/08/22 07:35:41;;;;;;;1.90;1.80;;;22.70;55.30;;;;;;5065583;28;20604;-74
2021/08/22 07:38:08;;;;;;;2.35;2.15;;;22.70;55.30;;;;;;5065321;28;20166;-74
2021/08/22 07:40:36;;;;;;;1.98;1.88;;;22.80;55.30;;;;;;5065481;28;20074;-74
2021/08/22 07:43:04;;;;;;;1.92;1.73;;;22.80;55.20;;;;;;5064641;28;20083;-74
2021/08/22 07:45:31;;;;;;;1.83;1.73;;;22.80;55.30;;;;;;5064909;28;20127;-74
2021/08/22 07:47:58;;;;;;;2.22;2.13;;;22.80;55.20;;;;;;5065133;28;20144;-74
2021/08/22 07:50:25;;;;;;;1.92;1.83;;;22.80;55.10;;;;;;5065248;28;20052;-74
2021/08/22 07:52:52;;;;;;;2.53;2.30;;;22.90;55.10;;;;;;5064968;28;20060;-74
2021/08/22 07:55:20;;;;;;;2.30;1.83;;;22.90;55.10;;;;;;5065130;28;20387;-73
2021/08/22 07:57:47;;;;;;;2.30;2.10;;;22.90;55.10;;;;;;5064964;28;20040;-74
2021/08/22 08:00:15;;;;;;;1.70;1.60;;;22.90;55.10;;;;;;5068570;28;20051;-74
2021/08/22 08:02:42;;;;;;;1.98;1.88;;;22.90;55.00;;;;;;5067867;28;20053;-74
2021/08/22 08:05:10;;;;;;;1.70;1.60;;;23.00;55.00;;;;;;5067030;28;20044;-74
2021/08/22 08:07:38;;;;;;;1.95;1.75;;;23.00;54.90;;;;;;5068048;28;20076;-74
2021/08/22 08:10:06;;;;;;;1.80;1.70;;;23.00;54.90;;;;;;5068497;28;20480;-74
2021/08/22 08:12:34;;;;;;;2.53;2.33;;;23.10;54.90;;;;;;5068954;28;20127;-74
2021/08/22 08:15:02;;;;;;;2.10;1.80;;;23.10;55.00;;;;;;5068110;28;20136;-74
2021/08/22 08:17:29;;;;;;;2.17;1.98;;;23.10;55.00;;;;;;5068955;28;20402;-74
2021/08/22 08:19:56;;;;;;;2.28;2.05;;;23.10;55.20;;;;;;5068417;28;20044;-74
2021/08/22 08:22:23;;;;;;;1.83;1.73;;;23.10;55.20;;;;;;5068468;28;20091;-74
2021/08/22 08:24:51;;;;;;;1.85;1.73;;;23.10;55.20;;;;;;5067896;28;20485;-74
2021/08/22 08:27:19;;;;;;;2.22;2.03;;;23.10;55.20;;;;;;5068032;28;20512;-74
2021/08/22 08:29:46;;;;;;;1.92;1.83;;;23.20;55.10;;;;;;5067881;28;20515;-74
2021/08/22 08:32:14;;;;;;;1.83;1.73;;;23.20;55.10;;;;;;5067520;28;20156;-74
2021/08/22 08:34:41;;;;;;;1.80;1.70;;;23.20;55.00;;;;;;5067778;28;20050;-74
2021/08/22 08:37:08;;;;;;;2.22;2.03;;;23.20;54.80;;;;;;5068333;28;20040;-75
2021/08/22 08:39:35;;;;;;;1.70;1.60;;;23.20;54.70;;;;;;5067259;28;20049;-74
2021/08/22 08:42:31;;;;;;;2.10;1.90;;;23.20;54.60;;;;;;5068028;28;20120;-74
2021/08/22 08:44:58;;;;;;;1.77;1.67;;;23.20;54.60;;;;;;5067775;28;20079;-74
2021/08/22 08:47:26;;;;;;;2.10;1.90;;;23.20;54.50;;;;;;5068109;28;20132;-74
2021/08/22 08:50:24;;;;;;;2.00;1.80;;;23.30;54.50;;;;;;5067616;28;20354;-74
2021/08/22 08:52:58;;;;;;;2.05;1.92;;;23.30;54.40;;;;;;5067865;28;20059;-74
2021/08/22 08:55:39;;;;;;;2.33;2.13;;;23.30;54.40;;;;;;5066131;28;20041;-73
2021/08/22 08:58:05;;;;;;;;;;;23.30;54.30;;;;;;5067982;28;20040;-74
2021/08/22 09:00:35;;;;;;;2.10;2.00;;;23.30;54.30;;;;;;5067462;28;20011;-74
2021/08/22 09:03:04;;;;;;;3.88;2.00;;;23.30;54.30;;;;;;5067064;28;20045;-74
2021/08/22 09:06:09;;;;;;;2.00;1.90;;;23.30;54.30;;;;;;5066607;28;20552;-74
2021/08/22 09:09:15;;;;;;;2.38;2.20;;;23.30;54.30;;;;;;5066120;28;20047;-74
2021/08/22 09:12:23;;;;;;;2.00;1.90;;;23.40;54.30;;;;;;5066003;28;20132;-74
2021/08/22 09:15:29;;;;;;;2.28;2.08;;;23.40;54.30;;;;;;5066379;28;20041;-74
2021/08/22 09:18:36;;;;;;;1.90;1.80;;;23.40;54.20;;;;;;5067836;28;20511;-74
2021/08/22 09:21:43;;;;;;;2.08;1.98;;;23.40;54.20;;;;;;5065365;28;20309;-74
2021/08/22 09:24:50;;;;;;;1.98;1.77;;;23.40;54.20;;;;;;5066305;28;20139;-74
2021/08/22 09:28:00;;;;;;;2.05;1.85;;;23.40;54.20;;;;;;5065395;28;20586;-75
2021/08/22 09:31:06;;;;;;;2.20;2.00;;;23.50;54.30;;;;;;5066836;28;20136;-74
2021/08/22 09:34:13;;;;;;;2.13;1.88;;;23.50;54.20;;;;;;5066534;28;20152;-73
2021/08/22 09:37:20;;;;;;;2.58;2.30;;;23.50;54.20;;;;;;5066795;28;20206;-74
2021/08/22 09:40:27;;;;;;;2.33;2.13;;;23.50;54.30;;;;;;5051808;28;20259;-74
2021/08/22 09:43:35;;;;;;;2.17;2.08;;;23.50;54.30;;;;;;5066562;28;20091;-74
2021/08/22 09:46:38;;;;;;;2.00;1.90;;;23.50;54.30;;;;;;5066177;28;20119;-74
2021/08/22 09:49:44;;;;;;;2.22;2.08;;;23.50;54.30;;;;;;5067012;28;20620;-74
2021/08/22 09:52:51;;;;;;;2.03;1.90;;;23.50;54.30;;;;;;5065868;28;20138;-74
2021/08/22 09:55:58;;;;;;;1.90;1.80;;;23.50;54.30;;;;;;5065614;28;20086;-73
2021/08/22 09:59:00;;;;;;;1.77;1.67;;;23.50;54.30;;;;;;5065486;28;20131;-74
2021/08/22 10:01:59;;;;;;;2.10;2.00;;;23.50;54.30;;;;;;5065457;28;20417;-74
2021/08/22 10:05:05;;;;;;;1.93;1.83;;;23.60;54.20;;;;;;5066551;28;20055;-74
2021/08/22 10:07:56;;;;;;;2.33;2.00;;;23.60;54.10;;;;;;5064605;28;20048;-74
2021/08/22 10:10:29;;;;;;;1.70;1.60;;;23.60;54.10;;;;;;5066174;28;20090;-74
2021/08/22 10:12:56;;;;;;;1.90;1.80;;;23.60;54.20;;;;;;5066175;28;20144;-74
2021/08/22 10:15:23;;;;;;;1.67;1.58;;;23.60;54.10;;;;;;5065787;28;20048;-75
2021/08/22 10:17:51;;;;;;;2.00;1.88;;;23.60;54.10;;;;;;5065769;28;20079;-74
2021/08/22 10:20:19;;;;;;;1.90;1.77;;;23.60;54.00;;;;;;5066146;28;20564;-74
2021/08/22 10:22:48;;;;;;;1.90;1.80;;;23.60;53.90;;;;;;5065816;28;20411;-74
2021/08/22 10:25:47;;;;;;;2.15;1.92;;;23.60;54.00;;;;;;5065743;28;20135;-74
2021/08/22 10:28:14;;;;;;;1.98;1.80;;;23.60;54.00;;;;;;5066530;28;20455;-74
2021/08/22 10:30:44;;;;;;;1.58;1.48;;;23.60;53.90;;;;;;5065672;28;20388;-74
2021/08/22 10:33:12;;;;;;;1.67;1.58;;;23.60;53.90;;;;;;5065403;28;20131;-74
2021/08/22 10:35:41;;;;;;;1.80;1.70;;;23.60;53.80;;;;;;5066134;28;20322;-73
2021/08/22 10:38:26;;;;;;;1.60;1.50;;;23.60;53.60;;;;;;5065825;28;20072;-74
2021/08/22 10:40:54;;;;;;;1.83;1.73;;;23.60;53.50;;;;;;5065425;28;20066;-74
2021/08/22 10:43:31;;;;;;;1.83;1.73;;;23.60;53.40;;;;;;5066041;28;20132;-74
2021/08/22 10:45:58;;;;;;;2.20;2.00;;;23.60;53.30;;;;;;5065698;28;20117;-74
2021/08/22 10:48:45;;;;;;;1.92;1.83;;;23.60;53.30;;;;;;5066073;28;20251;-74
2021/08/22 10:51:12;;;;;;;1.60;1.50;;;23.60;53.30;;;;;;5065162;28;20066;-74
2021/08/22 10:53:43;;;;;;;1.80;1.70;;;23.60;53.80;;;;;;5065672;28;20123;-74
2021/08/22 10:56:36;;;;;;;1.80;1.70;;;23.50;53.20;;;;;;5065682;28;20055;-74
2021/08/22 10:59:06;;;;;;;2.30;2.10;;;23.50;53.20;;;;;;5065170;28;20131;-74
2021/08/22 11:01:36;;;;;;;1.77;1.67;;;23.50;53.40;;;;;;5065499;28;20058;-74
2021/08/22 11:04:04;;;;;;;;;;;23.50;53.50;;;;;;5066048;28;20091;-74
2021/08/22 11:06:33;;;;;;;1.67;1.58;;;23.50;53.40;;;;;;5064895;28;20446;-76
2021/08/22 11:09:00;;;;;;;1.60;1.50;;;23.50;53.40;;;;;;5065754;28;20403;-74
2021/08/22 11:11:27;;;;;;;1.92;1.83;;;23.50;53.40;;;;;;5065008;28;20127;-74
2021/08/22 11:13:59;;;;;;;1.83;1.73;;;23.50;53.40;;;;;;5065750;28;20090;-74
2021/08/22 11:16:49;;;;;;;1.70;1.60;;;23.50;53.30;;;;;;5064206;28;20053;-74
2021/08/22 11:19:16;;;;;;;1.45;1.33;;;23.50;53.20;;;;;;5065646;28;20508;-74
2021/08/22 11:21:44;;;;;;;1.70;1.60;;;23.50;53.00;;;;;;5063314;28;20143;-74
2021/08/22 11:24:12;;;;;;;1.83;1.60;;;23.50;52.90;;;;;;5065478;28;20091;-74
2021/08/22 11:26:39;;;;;;;2.03;1.83;;;23.50;52.90;;;;;;5063873;28;20076;-74
2021/08/22 11:29:06;;;;;;;1.60;1.50;;;23.50;52.70;;;;;;5064829;28;20128;-74
2021/08/22 11:31:35;;;;;;;1.95;1.85;;;23.50;53.30;;;;;;5065209;28;20080;-73
2021/08/22 11:34:12;;;;;;;2.20;2.00;;;23.50;52.70;;;;;;5066178;28;20445;-74
2021/08/22 11:36:40;;;;;;;1.80;1.70;;;23.50;52.70;;;;;;5068750;28;20509;-74
2021/08/22 11:39:16;;;;;;;3.20;1.98;;;23.60;52.70;;;;;;5068866;28;20084;-74
2021/08/22 11:41:49;;;;;;;1.77;1.67;;;23.60;52.70;;;;;;5068482;28;20131;-74
2021/08/22 11:44:24;;;;;;;1.73;1.63;;;23.60;52.70;;;;;;5068776;28;20084;-73
2021/08/22 11:46:52;;;;;;;2.33;2.13;;;23.60;52.60;;;;;;5068584;28;20279;-73
2021/08/22 11:49:20;;;;;;;1.85;1.75;;;23.60;52.60;;;;;;5068767;28;20056;-74
2021/08/22 11:51:53;;;;;;;1.77;1.67;;;23.50;52.60;;;;;;5067767;28;20047;-74
2021/08/22 11:54:21;;;;;;;2.83;2.55;;;23.60;52.60;;;;;;5069430;28;20072;-74
2021/08/22 11:56:49;;;;;;;1.50;1.40;;;23.50;52.70;;;;;;5068300;28;20080;-74
2021/08/22 11:59:27;;;;;;;1.50;1.40;;;23.60;52.50;;;;;;5068630;28;20267;-73
2021/08/22 12:02:19;;;;;;;1.80;1.70;;;23.50;52.50;;;;;;5068229;28;20127;-73
2021/08/22 12:04:47;;;;;;;1.73;1.63;;;23.60;52.50;;;;;;5068773;28;20040;-74
2021/08/22 12:07:19;;;;;;;2.42;1.88;;;23.60;52.50;;;;;;5068592;28;20140;-74
2021/08/22 12:09:50;;;;;;;1.95;1.75;;;23.60;52.50;;;;;;5067412;28;20136;-74
2021/08/22 12:12:23;;;;;;;1.67;1.58;;;23.50;52.40;;;;;;5068260;28;20140;-73
2021/08/22 12:14:50;;;;;;;1.95;1.85;;;23.60;52.40;;;;;;5068841;28;20127;-74
2021/08/22 12:17:23;;;;;;;2.88;1.90;;;23.60;52.30;;;;;;5067916;28;20131;-74
2021/08/22 12:19:50;;;;;;;1.98;1.77;;;23.60;52.30;;;;;;5066928;28;20109;-74
2021/08/22 12:22:18;;;;;;;1.77;1.67;;;23.60;52.20;;;;;;5068104;28;20460;-73
2021/08/22 12:24:46;;;;;;;1.70;1.60;;;23.60;52.20;;;;;;5068607;28;20055;-74
2021/08/22 12:27:26;;;;;;;1.65;1.55;;;23.70;52.10;;;;;;5067660;28;20052;-74
2021/08/22 12:30:10;;;;;;;1.60;1.50;;;23.60;52.00;;;;;;5068418;28;20113;-74
2021/08/22 12:32:37;;;;;;;1.60;1.50;;;23.70;52.00;;;;;;5067403;28;20094;-73
2021/08/22 12:35:07;;;;;;;1.80;1.60;;;23.70;51.90;;;;;;5068078;28;20132;-74
2021/08/22 12:37:34;;;;;;;1.90;1.80;;;23.70;51.90;;;;;;5067301;28;20445;-73
2021/08/22 12:40:05;;;;;;;1.77;1.67;;;23.70;51.80;;;;;;5067969;28;20448;-74
2021/08/22 12:42:34;;;;;;;1.60;1.50;;;23.70;51.60;;;;;;5068189;28;20459;-73
2021/08/22 12:45:01;;;;;;;1.52;1.42;;;23.70;51.60;;;;;;5066981;28;20732;-74
2021/08/22 12:47:28;;;;;;;1.75;1.65;;;23.80;51.50;;;;;;5067833;28;20048;-73
2021/08/22 12:49:56;;;;;;;1.70;1.60;;;23.80;51.30;;;;;;5068081;28;20048;-73
2021/08/22 12:52:26;;;;;;;1.70;1.60;;;23.80;51.20;;;;;;5067176;28;20048;-73
2021/08/22 12:54:54;;;;;;;1.83;1.70;;;23.80;51.20;;;;;;5067855;28;20101;-74
2021/08/22 12:57:22;;;;;;;1.58;1.48;;;23.90;51.10;;;;;;5067048;28;20055;-73
2021/08/22 12:59:49;;;;;;;1.92;1.80;;;23.90;51.00;;;;;;5067848;28;20397;-74
2021/08/22 13:02:16;;;;;;;1.63;1.52;;;23.90;51.00;;;;;;5067478;28;20076;-73
2021/08/22 13:04:43;;;;;;;1.80;1.70;;;23.90;50.80;;;;;;5066851;28;20233;-73
2021/08/22 13:07:10;;;;;;;1.70;1.60;;;23.90;50.70;;;;;;5067402;28;20277;-73
2021/08/22 13:09:37;;;;;;;1.77;1.67;;;23.90;50.60;;;;;;5067140;28;20075;-73